Time;durP1;ratioP1;P1;durP2;ratioP2;P2;SDS_P1;SDS_P2;PMS_P1;PMS_P2;Temp;Humidity;BMP_temperature;BMP_pressure;BME280_temperature;BME280_humidity;BME280_pressure;Samples;Min_cycle;Max_cycle;Signal;HPM_P1;HPM_P2
2022/08/27 00:01:52;;;;;;;5.87;1.90;;;20.60;1.00;;;;;;6250048;23;20622;-86
2022/08/27 00:04:18;;;;;;;6.47;2.50;;;20.60;1.00;;;;;;6246750;22;20607;-87
2022/08/27 00:06:43;;;;;;;10.20;2.10;;;20.60;1.00;;;;;;6245948;23;20645;-87
2022/08/27 00:09:09;;;;;;;4.43;2.00;;;20.60;1.00;;;;;;6248014;23;20199;-86
2022/08/27 00:11:35;;;;;;;4.37;1.60;;;20.60;1.00;;;;;;6249196;23;20188;-87
2022/08/27 00:14:01;;;;;;;8.60;2.80;;;20.60;1.00;;;;;;6249617;22;20180;-86
2022/08/27 00:16:27;;;;;;;8.13;2.37;;;20.50;1.00;;;;;;6247567;23;20669;-86
2022/08/27 00:18:54;;;;;;;11.43;2.20;;;20.50;1.00;;;;;;6249924;23;20372;-86
2022/08/27 00:21:20;;;;;;;6.47;2.00;;;20.50;1.00;;;;;;6248802;23;20161;-86
2022/08/27 00:23:46;;;;;;;4.20;1.90;;;20.50;1.00;;;;;;6249324;22;20494;-86
2022/08/27 00:26:13;;;;;;;8.30;1.93;;;20.50;1.00;;;;;;6249123;22;20382;-86
2022/08/27 00:28:40;;;;;;;6.90;2.10;;;20.50;1.00;;;;;;6248746;23;20417;-86
2022/08/27 00:31:06;;;;;;;5.67;1.83;;;20.50;1.00;;;;;;6248585;23;20395;-86
2022/08/27 00:33:32;;;;;;;5.87;1.90;;;20.50;1.00;;;;;;6248708;23;20411;-86
2022/08/27 00:35:58;;;;;;;5.50;2.10;;;20.50;1.00;;;;;;6248397;23;20374;-86
2022/08/27 00:38:24;;;;;;;5.20;1.90;;;20.50;1.00;;;;;;6248684;23;20402;-87
2022/08/27 00:40:50;;;;;;;6.47;2.17;;;20.40;1.00;;;;;;6249830;23;20718;-85
2022/08/27 00:43:27;;;;;;;9.20;2.30;;;20.40;1.00;;;;;;6249533;22;20317;-85
2022/08/27 00:46:10;;;;;;;6.70;1.90;;;20.40;1.00;;;;;;6250180;22;20536;-85
2022/08/27 00:48:36;;;;;;;6.27;1.70;;;20.40;1.00;;;;;;6250656;22;20361;-85
2022/08/27 00:51:02;;;;;;;6.53;1.93;;;20.40;1.00;;;;;;6248590;23;20405;-85
2022/08/27 00:53:32;;;;;;;4.60;1.80;;;20.40;1.00;;;;;;6249754;22;20166;-85
2022/08/27 00:56:15;;;;;;;4.37;1.93;;;20.40;1.00;;;;;;6250028;22;20379;-85
2022/08/27 00:58:44;;;;;;;6.80;1.97;;;20.40;1.00;;;;;;6249465;22;20364;-85
2022/08/27 01:01:13;;;;;;;8.07;2.40;;;20.30;1.00;;;;;;6248617;22;20852;-86
2022/08/27 01:03:40;;;;;;;6.60;2.53;;;20.30;1.00;;;;;;6248819;22;20388;-86
2022/08/27 01:06:10;;;;;;;8.40;2.43;;;20.30;1.00;;;;;;6249504;22;20872;-86
2022/08/27 01:08:39;;;;;;;5.00;2.60;;;20.30;1.00;;;;;;6250340;22;20375;-86
2022/08/27 01:11:05;;;;;;;6.67;2.10;;;20.30;1.00;;;;;;6250234;22;20381;-86
2022/08/27 01:13:33;;;;;;;8.30;2.20;;;20.30;1.00;;;;;;6246976;22;20904;-85
2022/08/27 01:15:59;;;;;;;3.63;1.83;;;20.30;1.00;;;;;;6249649;22;20371;-86
2022/08/27 01:18:27;;;;;;;4.10;1.97;;;20.30;1.00;;;;;;6247728;23;20387;-85
2022/08/27 01:21:21;;;;;;;9.27;2.73;;;20.30;1.00;;;;;;6249982;22;20857;-86
2022/08/27 01:24:01;;;;;;;6.50;2.40;;;20.30;1.00;;;;;;6249764;22;20419;-86
2022/08/27 01:26:29;;;;;;;10.43;2.50;;;20.30;1.00;;;;;;6248604;22;20820;-86
2022/08/27 01:28:55;;;;;;;6.23;2.33;;;20.30;1.00;;;;;;6248936;23;20420;-86
2022/08/27 01:31:21;;;;;;;3.60;2.10;;;20.20;1.00;;;;;;6248572;22;20941;-86
2022/08/27 01:33:56;;;;;;;4.03;2.17;;;20.20;1.00;;;;;;6248775;22;20430;-85
2022/08/27 01:36:21;;;;;;;8.70;2.50;;;20.20;1.00;;;;;;6246316;23;20167;-85
2022/08/27 01:38:47;;;;;;;5.47;1.87;;;20.20;1.00;;;;;;6249599;23;20863;-86
2022/08/27 01:41:13;;;;;;;5.30;2.13;;;20.10;1.00;;;;;;6247621;23;20156;-85
2022/08/27 01:43:38;;;;;;;9.30;2.70;;;20.10;2.60;;;;;;6249688;22;20900;-85
2022/08/27 01:46:04;;;;;;;7.47;2.40;;;20.10;19.60;;;;;;6248573;23;20166;-86
2022/08/27 01:48:29;;;;;;;6.43;2.27;;;20.10;57.20;;;;;;6247811;23;20243;-86
2022/08/27 01:50:55;;;;;;;8.70;2.50;;;20.10;99.90;;;;;;6249510;23;20183;-86
2022/08/27 01:53:24;;;;;;;4.70;2.07;;;20.10;99.90;;;;;;6247257;22;20172;-85
2022/08/27 01:55:50;;;;;;;5.53;2.60;;;20.10;99.90;;;;;;6246883;23;20672;-85
2022/08/27 01:58:18;;;;;;;6.70;2.10;;;20.10;99.90;;;;;;6245990;23;20484;-87
2022/08/27 02:00:47;;;;;;;8.73;3.93;;;20.10;99.90;;;;;;6247986;22;20385;-86
2022/08/27 02:03:17;;;;;;;5.17;2.10;;;20.00;99.90;;;;;;6246544;22;20417;-85
2022/08/27 02:05:43;;;;;;;4.80;1.90;;;20.00;99.90;;;;;;6246711;22;20378;-86
2022/08/27 02:08:09;;;;;;;5.10;2.73;;;20.00;99.90;;;;;;6245534;22;20371;-86
2022/08/27 02:10:37;;;;;;;5.80;1.70;;;20.00;99.90;;;;;;6243919;23;20815;-86
2022/08/27 02:13:05;;;;;;;10.50;2.50;;;20.00;99.90;;;;;;6245885;22;20180;-86
2022/08/27 02:15:30;;;;;;;3.30;1.87;;;20.00;99.90;;;;;;6244652;22;20393;-88
2022/08/27 02:17:56;;;;;;;7.30;2.70;;;20.00;99.90;;;;;;6242606;23;20381;-88
2022/08/27 02:20:22;;;;;;;6.83;2.00;;;20.00;99.90;;;;;;6242955;23;20168;-88
2022/08/27 02:22:48;;;;;;;5.37;2.27;;;20.00;99.90;;;;;;6245628;22;20186;-88
2022/08/27 02:25:15;;;;;;;6.07;2.13;;;19.90;99.90;;;;;;6247091;23;20482;-85
2022/08/27 02:27:42;;;;;;;5.70;2.23;;;19.90;99.90;;;;;;6245072;22;20373;-85
2022/08/27 02:30:11;;;;;;;7.17;2.60;;;19.90;99.90;;;;;;6246161;22;21281;-85
2022/08/27 02:32:45;;;;;;;11.43;2.40;;;19.90;56.40;;;;;;6244697;23;20413;-85
2022/08/27 02:35:12;;;;;;;3.83;2.10;;;19.90;2.80;;;;;;6244145;23;20385;-86
2022/08/27 02:37:40;;;;;;;5.23;2.30;;;19.80;1.00;;;;;;6243933;23;20387;-86
2022/08/27 02:40:07;;;;;;;6.23;2.73;;;19.80;1.00;;;;;;6248783;22;20375;-86
2022/08/27 02:42:33;;;;;;;10.80;2.70;;;19.80;1.00;;;;;;6249845;22;20376;-87
2022/08/27 02:44:59;;;;;;;9.10;2.00;;;19.80;1.00;;;;;;6245428;22;20909;-86
2022/08/27 02:47:24;;;;;;;5.90;2.40;;;19.70;1.00;;;;;;6244581;23;20157;-86
2022/08/27 02:49:50;;;;;;;4.90;2.77;;;19.80;1.00;;;;;;6244004;23;20567;-86
2022/08/27 02:52:16;;;;;;;7.93;2.57;;;19.70;1.00;;;;;;6245109;23;20141;-86
2022/08/27 02:54:42;;;;;;;8.03;2.70;;;19.70;1.00;;;;;;6242749;22;20225;-86
2022/08/27 02:57:08;;;;;;;7.17;2.50;;;19.70;1.00;;;;;;6242410;23;20377;-86
2022/08/27 02:59:34;;;;;;;18.40;2.33;;;19.70;1.00;;;;;;6245394;22;20889;-86
2022/08/27 03:02:00;;;;;;;5.20;2.30;;;19.70;1.00;;;;;;6243010;23;20389;-86
2022/08/27 03:04:27;;;;;;;5.53;2.80;;;19.70;1.00;;;;;;6243415;22;20492;-86
2022/08/27 03:06:53;;;;;;;4.73;2.10;;;19.80;1.00;;;;;;6242846;23;20215;-86
2022/08/27 03:09:19;;;;;;;7.20;2.10;;;19.80;1.00;;;;;;6244437;23;20721;-86
2022/08/27 03:11:45;;;;;;;4.57;2.07;;;19.80;1.00;;;;;;6244959;23;20469;-86
2022/08/27 03:14:11;;;;;;;10.93;2.33;;;19.80;1.00;;;;;;6244889;22;20398;-86
2022/08/27 03:16:37;;;;;;;6.37;2.23;;;19.80;1.00;;;;;;6245854;22;20151;-86
2022/08/27 03:19:07;;;;;;;5.47;2.13;;;19.80;1.00;;;;;;6245644;22;20384;-86
2022/08/27 03:21:35;;;;;;;11.20;2.50;;;19.80;1.00;;;;;;6246478;22;20356;-86
2022/08/27 03:24:01;;;;;;;3.73;2.23;;;19.80;1.00;;;;;;6246453;22;20459;-86
2022/08/27 03:26:28;;;;;;;6.70;2.10;;;19.80;1.00;;;;;;6245827;23;20882;-86
2022/08/27 03:28:54;;;;;;;3.33;2.23;;;19.80;1.00;;;;;;6246025;23;20396;-86
2022/08/27 03:31:25;;;;;;;8.63;2.37;;;19.70;1.00;;;;;;6245618;23;20394;-85
2022/08/27 03:33:57;;;;;;;4.93;2.33;;;19.70;1.00;;;;;;6248156;22;20484;-86
2022/08/27 03:36:28;;;;;;;4.63;2.50;;;19.70;1.00;;;;;;6245650;23;20735;-86
2022/08/27 03:38:54;;;;;;;4.73;1.63;;;19.70;1.00;;;;;;6247688;22;20823;-86
2022/08/27 03:41:21;;;;;;;4.83;1.80;;;19.70;1.00;;;;;;6245965;23;20381;-86
2022/08/27 03:43:47;;;;;;;7.83;2.83;;;19.70;1.00;;;;;;6250893;22;20873;-86
2022/08/27 03:46:13;;;;;;;5.73;2.10;;;19.70;1.00;;;;;;6248475;23;20385;-86
2022/08/27 03:48:38;;;;;;;6.47;2.27;;;19.70;99.90;;;;;;6249356;23;20390;-86
2022/08/27 03:51:06;;;;;;;10.77;2.60;;;19.70;99.90;;;;;;6250868;23;20424;-86
2022/08/27 03:53:32;;;;;;;7.87;2.40;;;19.70;99.90;;;;;;6250163;22;20185;-86
2022/08/27 03:55:58;;;;;;;3.80;2.13;;;19.70;99.90;;;;;;6249343;23;20714;-86
2022/08/27 03:58:24;;;;;;;8.50;2.27;;;19.70;99.90;;;;;;6249323;23;20461;-86
2022/08/27 04:00:49;;;;;;;4.13;2.10;;;19.70;99.90;;;;;;6249694;23;20185;-86
2022/08/27 04:03:15;;;;;;;8.63;2.33;;;19.70;99.90;;;;;;6248431;22;20178;-86
2022/08/27 04:05:41;;;;;;;7.23;2.53;;;19.70;99.90;;;;;;6248755;23;20162;-86
2022/08/27 04:08:08;;;;;;;5.87;2.63;;;19.70;99.90;;;;;;6250551;22;20246;-86
2022/08/27 04:10:34;;;;;;;9.83;2.47;;;19.70;99.90;;;;;;6251306;22;20453;-87
2022/08/27 04:12:59;;;;;;;4.70;2.20;;;19.70;99.90;;;;;;6249404;22;20416;-85
2022/08/27 04:15:25;;;;;;;8.00;2.37;;;19.70;99.90;;;;;;6248929;23;20218;-86
2022/08/27 04:17:51;;;;;;;8.13;2.33;;;19.70;99.90;;;;;;6249369;22;20146;-87
2022/08/27 04:20:17;;;;;;;6.37;2.13;;;19.70;99.90;;;;;;6251359;23;20440;-86
2022/08/27 04:22:42;;;;;;;4.60;2.40;;;19.70;99.90;;;;;;6250364;22;20160;-86
2022/08/27 04:25:08;;;;;;;7.40;2.30;;;19.70;99.90;;;;;;6250335;23;20154;-86
2022/08/27 04:27:34;;;;;;;8.73;3.43;;;19.70;99.90;;;;;;6250208;22;20259;-86
2022/08/27 04:30:00;;;;;;;4.80;2.53;;;19.70;99.90;;;;;;6249413;23;20930;-86
2022/08/27 04:32:27;;;;;;;6.57;2.37;;;19.70;99.90;;;;;;6248643;23;20406;-86
2022/08/27 04:34:54;;;;;;;5.23;2.30;;;19.70;99.90;;;;;;6250946;22;20481;-86
2022/08/27 04:37:21;;;;;;;4.67;2.53;;;19.70;99.90;;;;;;6248177;23;20379;-86
2022/08/27 04:39:46;;;;;;;6.60;2.30;;;19.70;99.90;;;;;;6250004;23;20393;-86
2022/08/27 04:42:12;;;;;;;4.20;2.17;;;19.70;99.90;;;;;;6249209;23;20387;-86
2022/08/27 04:44:38;;;;;;;3.60;2.00;;;19.70;99.90;;;;;;6251343;22;20180;-86
2022/08/27 04:47:04;;;;;;;4.60;2.63;;;19.70;99.90;;;;;;6248439;23;20212;-86
2022/08/27 04:49:31;;;;;;;5.70;2.57;;;19.70;99.90;;;;;;6249167;23;20181;-86
2022/08/27 04:51:57;;;;;;;10.03;2.90;;;19.70;99.90;;;;;;6249623;23;20379;-86
2022/08/27 04:54:23;;;;;;;5.13;2.00;;;19.70;99.90;;;;;;6247301;22;20472;-86
2022/08/27 04:56:49;;;;;;;4.47;2.00;;;19.70;99.90;;;;;;6248120;22;20377;-86
2022/08/27 04:59:15;;;;;;;6.93;2.53;;;19.70;99.90;;;;;;6247259;23;20390;-86
2022/08/27 05:01:41;;;;;;;7.50;2.20;;;19.70;99.90;;;;;;6249413;22;20382;-86
2022/08/27 05:04:09;;;;;;;5.53;2.60;;;19.70;99.90;;;;;;6247383;22;20773;-86
2022/08/27 05:06:38;;;;;;;8.40;2.50;;;19.70;99.90;;;;;;6249030;22;20379;-86
2022/08/27 05:09:04;;;;;;;11.40;2.37;;;19.70;99.90;;;;;;6250018;23;20513;-86
2022/08/27 05:11:33;;;;;;;5.80;1.97;;;19.70;99.90;;;;;;6249710;23;20468;-86
2022/08/27 05:14:02;;;;;;;4.17;2.07;;;19.70;99.90;;;;;;6248900;22;20410;-86
2022/08/27 05:16:30;;;;;;;4.33;2.37;;;19.70;99.90;;;;;;6247438;23;20408;-86
2022/08/27 05:18:57;;;;;;;5.70;2.40;;;19.70;99.90;;;;;;6248831;23;20879;-86
2022/08/27 05:21:32;;;;;;;4.93;2.60;;;19.70;99.90;;;;;;6249492;23;20449;-86
2022/08/27 05:24:00;;;;;;;6.57;2.30;;;19.70;99.90;;;;;;6248208;22;20459;-86
2022/08/27 05:26:27;;;;;;;11.50;2.57;;;19.70;99.90;;;;;;6248095;23;20391;-85
2022/08/27 05:28:53;;;;;;;5.33;2.30;;;19.70;99.90;;;;;;6247781;23;20714;-86
2022/08/27 05:31:20;;;;;;;5.50;2.50;;;19.70;99.90;;;;;;6247613;23;20421;-87
2022/08/27 05:33:46;;;;;;;6.00;2.17;;;19.70;99.90;;;;;;6247932;22;20399;-85
2022/08/27 05:36:27;;;;;;;3.90;1.90;;;19.70;99.90;;;;;;6247387;23;20410;-86
2022/08/27 05:38:55;;;;;;;7.13;2.03;;;19.60;99.90;;;;;;6247466;23;20745;-84
2022/08/27 05:41:26;;;;;;;10.20;2.37;;;19.50;99.90;;;;;;6248917;22;20383;-85
2022/08/27 05:43:52;;;;;;;4.73;2.00;;;19.50;99.90;;;;;;6247718;22;20415;-85
2022/08/27 05:46:21;;;;;;;8.57;2.20;;;19.50;99.90;;;;;;6248211;22;20369;-85
2022/08/27 05:48:48;;;;;;;6.00;2.53;;;19.50;99.90;;;;;;6250378;22;20381;-86
2022/08/27 05:51:20;;;;;;;3.63;2.10;;;19.50;99.90;;;;;;6250868;22;20379;-85
2022/08/27 05:53:46;;;;;;;4.60;2.27;;;19.50;99.90;;;;;;6250262;22;20411;-85
2022/08/27 05:56:14;;;;;;;9.03;2.33;;;19.50;99.90;;;;;;6248394;23;20441;-84
2022/08/27 06:01:24;;;;;;;6.47;3.20;;;19.60;99.90;;;;;;6248974;23;20495;-85
2022/08/27 06:03:51;;;;;;;10.40;2.53;;;19.60;99.90;;;;;;6248169;22;20415;-86
2022/08/27 06:06:17;;;;;;;6.43;1.80;;;19.60;99.90;;;;;;6243660;23;20668;-86
2022/08/27 06:08:43;;;;;;;6.47;1.83;;;19.60;99.90;;;;;;6244162;23;20390;-87
2022/08/27 06:11:10;;;;;;;3.33;1.73;;;19.70;99.90;;;;;;6244285;23;20769;-86
2022/08/27 06:13:36;;;;;;;4.70;1.53;;;19.70;99.90;;;;;;6243747;22;20683;-86
2022/08/27 06:16:07;;;;;;;7.90;2.53;;;19.70;99.90;;;;;;6241868;23;20386;-86
2022/08/27 06:18:35;;;;;;;7.27;2.20;;;19.70;99.90;;;;;;6243525;23;20374;-86
2022/08/27 06:21:01;;;;;;;4.20;2.23;;;19.80;99.10;;;;;;6247117;23;20396;-87
2022/08/27 06:23:28;;;;;;;3.50;2.37;;;19.80;94.50;;;;;;6248291;22;20406;-87
2022/08/27 06:25:54;;;;;;;4.80;2.10;;;19.80;86.30;;;;;;6249049;23;20164;-87
2022/08/27 06:28:22;;;;;;;4.30;2.57;;;19.90;69.40;;;;;;6247448;23;20423;-87
2022/08/27 06:30:47;;;;;;;9.03;2.33;;;20.00;53.80;;;;;;6247192;23;20439;-87
2022/08/27 06:33:13;;;;;;;5.83;2.20;;;20.00;34.10;;;;;;6247697;22;20425;-88
2022/08/27 06:35:39;;;;;;;8.37;2.57;;;20.00;16.10;;;;;;6249754;22;20157;-88
2022/08/27 06:38:04;;;;;;;4.83;1.87;;;20.00;1.00;;;;;;6246577;23;20154;-88
2022/08/27 06:40:30;;;;;;;4.50;2.20;;;20.00;1.00;;;;;;6248282;23;20219;-87
2022/08/27 06:42:56;;;;;;;4.97;2.07;;;20.10;1.00;;;;;;6248373;22;20157;-87
2022/08/27 06:45:21;;;;;;;5.43;1.80;;;20.10;1.00;;;;;;6247618;23;20168;-87
2022/08/27 06:47:47;;;;;;;5.90;2.67;;;20.10;1.00;;;;;;6245677;23;20187;-86
2022/08/27 06:50:13;;;;;;;7.13;2.47;;;20.10;1.00;;;;;;6248601;23;20218;-86
2022/08/27 06:52:38;;;;;;;4.67;2.10;;;20.20;1.00;;;;;;6248544;23;20155;-87
2022/08/27 06:55:04;;;;;;;4.37;2.13;;;20.20;1.00;;;;;;6248415;23;20155;-86
2022/08/27 06:57:31;;;;;;;7.00;2.10;;;20.20;1.00;;;;;;6245346;23;20543;-87
2022/08/27 06:59:56;;;;;;;148.83;9.83;;;20.30;1.00;;;;;;6244141;23;20398;-86
2022/08/27 07:02:22;;;;;;;6.73;2.33;;;20.30;1.00;;;;;;6243896;23;20376;-85
2022/08/27 07:04:49;;;;;;;4.67;1.93;;;20.40;1.00;;;;;;6243046;22;20188;-86
2022/08/27 07:07:14;;;;;;;6.70;2.30;;;20.40;1.00;;;;;;6237899;23;20598;-86
2022/08/27 07:09:40;;;;;;;6.00;2.37;;;20.40;1.00;;;;;;6241632;23;20503;-86
2022/08/27 07:12:06;;;;;;;2.77;1.90;;;20.40;1.00;;;;;;6244658;22;20220;-86
2022/08/27 07:14:32;;;;;;;3.10;2.37;;;20.40;1.00;;;;;;6242955;22;20180;-86
2022/08/27 07:16:58;;;;;;;5.57;1.97;;;20.50;1.00;;;;;;6244864;23;20175;-86
2022/08/27 07:19:24;;;;;;;7.40;2.17;;;20.50;1.00;;;;;;6242701;23;20441;-86
2022/08/27 07:21:49;;;;;;;6.63;2.87;;;20.50;1.00;;;;;;6243411;23;20161;-85
2022/08/27 07:24:18;;;;;;;9.30;2.77;;;20.40;1.00;;;;;;6243141;22;20183;-87
2022/08/27 07:26:44;;;;;;;4.60;1.90;;;20.40;1.00;;;;;;6244741;22;20152;-86
2022/08/27 07:29:18;;;;;;;7.80;3.20;;;20.40;1.00;;;;;;6246003;22;20750;-86
2022/08/27 07:31:44;;;;;;;8.50;2.67;;;20.40;1.00;;;;;;6244454;23;20409;-87
2022/08/27 07:34:10;;;;;;;5.87;3.03;;;20.30;1.00;;;;;;6246146;22;20410;-87
2022/08/27 07:36:37;;;;;;;4.07;1.77;;;20.30;1.00;;;;;;6243488;23;20389;-87
2022/08/27 07:39:03;;;;;;;8.33;2.33;;;20.30;1.00;;;;;;6243882;23;20590;-85
2022/08/27 07:41:30;;;;;;;5.23;2.13;;;20.30;1.00;;;;;;6244813;22;20710;-87
2022/08/27 07:46:40;;;;;;;8.03;2.47;;;20.30;1.00;;;;;;6244569;23;21226;-86
2022/08/27 07:49:05;;;;;;;5.30;2.07;;;20.40;1.00;;;;;;6244960;23;20386;-86
2022/08/27 07:51:31;;;;;;;7.30;2.37;;;20.40;1.00;;;;;;6244340;23;20152;-86
2022/08/27 07:53:57;;;;;;;6.30;2.10;;;20.40;1.00;;;;;;6244192;22;20179;-87
2022/08/27 07:56:23;;;;;;;6.33;1.80;;;20.40;1.00;;;;;;6243316;23;20542;-88
2022/08/27 07:58:52;;;;;;;8.03;1.90;;;20.50;1.00;;;;;;6243736;23;20425;-87
2022/08/27 08:01:18;;;;;;;4.30;1.73;;;20.50;1.00;;;;;;6246920;23;20152;-87
2022/08/27 08:03:46;;;;;;;2.77;2.00;;;20.60;1.00;;;;;;6244999;22;20391;-86
2022/08/27 08:06:23;;;;;;;5.03;1.80;;;20.60;1.00;;;;;;6243007;23;20154;-85
2022/08/27 08:09:00;;;;;;;4.30;2.30;;;20.60;1.00;;;;;;6243734;23;20440;-87
2022/08/27 08:11:44;;;;;;;10.50;2.40;;;20.70;1.00;;;;;;6246684;23;20422;-87
2022/08/27 08:14:10;;;;;;;6.60;2.37;;;20.70;1.00;;;;;;6244776;22;20400;-86
2022/08/27 08:16:41;;;;;;;4.27;2.40;;;20.70;1.00;;;;;;6244155;23;20422;-86
2022/08/27 08:19:12;;;;;;;5.23;2.33;;;20.70;1.00;;;;;;6243189;23;20214;-86
2022/08/27 08:21:38;;;;;;;6.17;2.20;;;20.70;1.00;;;;;;6243073;23;20388;-85
2022/08/27 08:24:11;;;;;;;8.93;2.20;;;20.70;1.00;;;;;;6244670;22;20407;-87
2022/08/27 08:26:40;;;;;;;5.47;2.20;;;20.70;1.00;;;;;;6244563;22;20504;-87
2022/08/27 08:29:08;;;;;;;2.93;1.97;;;20.70;1.00;;;;;;6245180;23;20693;-86
2022/08/27 08:31:37;;;;;;;6.10;1.87;;;20.70;1.00;;;;;;6244254;23;20478;-86
2022/08/27 08:34:05;;;;;;;7.10;2.27;;;20.70;1.00;;;;;;6246322;22;20398;-86
2022/08/27 08:36:35;;;;;;;4.33;1.93;;;20.80;1.00;;;;;;6243576;23;20374;-87
2022/08/27 08:39:02;;;;;;;7.27;2.33;;;20.80;1.00;;;;;;6245178;23;20383;-86
2022/08/27 08:41:41;;;;;;;5.13;2.20;;;20.90;1.00;;;;;;6244807;23;20379;-86
2022/08/27 08:44:25;;;;;;;5.00;2.20;;;20.90;1.00;;;;;;6243139;22;20402;-86
2022/08/27 08:47:09;;;;;;;4.43;2.00;;;21.00;1.00;;;;;;6243291;23;20379;-87
2022/08/27 08:49:42;;;;;;;9.20;2.40;;;21.00;1.00;;;;;;6244065;23;21012;-87
2022/08/27 08:52:50;;;;;;;4.10;2.20;;;21.10;1.00;;;;;;6243022;23;20768;-87
2022/08/27 08:55:36;;;;;;;5.07;2.23;;;21.10;1.00;;;;;;6241091;23;20390;-87
2022/08/27 08:58:16;;;;;;;2.77;1.90;;;21.20;1.00;;;;;;6243376;23;20376;-87
2022/08/27 09:00:44;;;;;;;4.10;2.00;;;21.30;1.00;;;;;;6244349;23;20471;-87
2022/08/27 09:03:12;;;;;;;5.00;2.30;;;21.30;1.00;;;;;;6243825;22;20458;-87
2022/08/27 09:05:46;;;;;;;11.50;2.50;;;21.30;1.00;;;;;;6243070;23;20387;-87
2022/08/27 09:08:37;;;;;;;4.00;2.20;;;21.30;1.00;;;;;;6244995;22;20408;-86
2022/08/27 09:11:41;;;;;;;5.33;2.47;;;21.40;1.00;;;;;;6244424;23;20428;-87
2022/08/27 09:15:01;;;;;;;6.10;2.50;;;21.40;99.90;;;;;;6243722;22;20462;-87
2022/08/27 09:17:26;;;;;;;6.50;2.80;;;21.50;99.90;;;;;;6222548;23;20406;-87
2022/08/27 09:19:55;;;;;;;3.17;2.00;;;21.50;99.90;;;;;;6242507;23;20384;-87
2022/08/27 09:22:31;;;;;;;8.07;2.67;;;21.60;99.90;;;;;;6243234;22;20154;-87
2022/08/27 09:25:16;;;;;;;7.33;2.80;;;21.60;99.90;;;;;;6242750;22;20400;-88
2022/08/27 09:27:42;;;;;;;4.60;2.47;;;21.70;99.90;;;;;;6241940;23;20383;-87
2022/08/27 09:30:32;;;;;;;6.67;3.00;;;21.70;99.90;;;;;;6243566;23;20508;-87
2022/08/27 09:33:02;;;;;;;3.70;2.47;;;21.80;99.90;;;;;;6242564;22;20224;-87
2022/08/27 09:35:43;;;;;;;4.73;2.13;;;21.80;99.90;;;;;;6243726;23;20734;-88
2022/08/27 09:38:12;;;;;;;11.10;3.90;;;21.80;99.90;;;;;;6241990;23;20457;-88
2022/08/27 09:40:47;;;;;;;6.50;2.07;;;21.90;99.90;;;;;;6242520;23;20434;-87
2022/08/27 09:43:15;;;;;;;9.20;2.40;;;22.00;99.90;;;;;;6242558;22;20407;-87
2022/08/27 09:45:50;;;;;;;6.77;2.43;;;22.00;99.90;;;;;;6244003;23;20384;-86
2022/08/27 09:48:25;;;;;;;5.47;2.23;;;22.00;99.90;;;;;;6242883;23;20464;-85
2022/08/27 09:51:18;;;;;;;6.07;2.03;;;22.10;99.90;;;;;;6242943;23;20428;-89
2022/08/27 09:53:54;;;;;;;5.53;2.53;;;22.20;99.90;;;;;;6242931;22;20405;-86
2022/08/27 09:56:58;;;;;;;4.67;2.00;;;22.30;99.90;;;;;;6242931;23;20432;-87
2022/08/27 09:59:36;;;;;;;8.20;2.40;;;22.40;99.90;;;;;;6198246;22;20481;-87
2022/08/27 10:02:13;;;;;;;9.43;2.40;;;22.60;99.90;;;;;;6244218;23;20772;-87
2022/08/27 10:04:45;;;;;;;6.67;2.57;;;22.70;99.90;;;;;;6245386;22;20397;-88
2022/08/27 10:07:32;;;;;;;4.13;2.03;;;22.90;99.90;;;;;;6242686;23;20719;-87
2022/08/27 10:10:23;;;;;;;5.50;2.40;;;23.10;99.90;;;;;;6243594;23;20434;-87
2022/08/27 10:12:59;;;;;;;3.00;1.80;;;23.30;99.90;;;;;;6243273;22;20414;-91
2022/08/27 10:15:33;;;;;;;2.67;1.67;;;23.40;99.90;;;;;;6245453;22;20363;-87
2022/08/27 10:18:37;;;;;;;8.70;2.30;;;23.60;99.90;;;;;;6242857;23;20867;-87
2022/08/27 10:21:18;;;;;;;4.10;2.13;;;23.70;99.90;;;;;;6242945;23;20463;-87
2022/08/27 10:24:10;;;;;;;7.73;2.83;;;23.90;99.90;;;;;;6242865;22;20416;-89
2022/08/27 10:26:47;;;;;;;6.47;1.90;;;24.10;99.90;;;;;;6242239;23;20417;-87
2022/08/27 10:29:30;;;;;;;4.67;1.90;;;24.20;99.90;;;;;;6243130;23;20762;-87
2022/08/27 10:35:25;;;;;;;2.73;1.87;;;24.60;99.90;;;;;;6249735;22;20533;-87
2022/08/27 10:38:17;;;;;;;4.27;1.90;;;24.80;99.90;;;;;;6217175;23;20856;-90
2022/08/27 10:41:02;;;;;;;7.27;2.67;;;24.90;99.90;;;;;;6217954;23;20414;-88
2022/08/27 10:43:31;;;;;;;8.73;2.60;;;25.00;99.90;;;;;;6244531;22;20399;-87
2022/08/27 10:46:56;;;;;;;4.53;1.90;;;25.10;99.90;;;;;;6217440;23;20989;-88
2022/08/27 10:50:01;;;;;;;4.97;1.77;;;25.20;99.90;;;;;;6184719;23;20427;-89
2022/08/27 10:52:52;;;;;;;5.27;2.10;;;25.40;99.90;;;;;;6217743;23;20412;-87
2022/08/27 10:55:39;;;;;;;4.40;1.43;;;25.50;99.90;;;;;;6228180;23;20471;-86
2022/08/27 10:58:19;;;;;;;8.83;1.90;;;25.60;99.90;;;;;;6217109;23;20444;-86
2022/08/27 11:00:49;;;;;;;5.50;2.27;;;25.60;99.90;;;;;;6218071;23;20462;-88
2022/08/27 11:03:24;;;;;;;5.60;2.50;;;25.70;99.90;;;;;;6244116;22;20399;-88
2022/08/27 11:05:50;;;;;;;5.00;2.13;;;25.80;99.90;;;;;;6243889;23;20730;-87
2022/08/27 11:08:41;;;;;;;5.00;1.93;;;25.80;99.90;;;;;;6216663;23;20391;-87
2022/08/27 11:11:14;;;;;;;3.50;2.10;;;25.90;99.90;;;;;;6217276;23;20871;-91
2022/08/27 11:13:52;;;;;;;3.27;1.50;;;26.00;99.90;;;;;;6217536;23;20407;-87
2022/08/27 11:16:23;;;;;;;8.57;1.80;;;26.00;99.90;;;;;;6217520;23;20380;-87
2022/08/27 11:19:09;;;;;;;3.17;2.03;;;26.10;99.90;;;;;;6217539;23;20848;-87
2022/08/27 11:22:05;;;;;;;11.33;2.50;;;26.20;99.90;;;;;;6217072;23;20384;-87
2022/08/27 11:25:01;;;;;;;4.77;2.10;;;26.20;99.90;;;;;;6201122;23;20404;-87
2022/08/27 11:27:30;;;;;;;9.47;2.43;;;26.30;99.90;;;;;;6199854;23;20407;-87
2022/08/27 11:30:08;;;;;;;5.47;1.90;;;26.40;99.90;;;;;;6218125;23;20736;-87
2022/08/27 11:33:08;;;;;;;5.97;2.17;;;26.40;99.90;;;;;;6217166;23;20711;-90
2022/08/27 11:36:13;;;;;;;6.10;2.43;;;26.40;99.90;;;;;;6216923;23;20449;-91
2022/08/27 11:38:53;;;;;;;6.00;2.53;;;26.50;99.90;;;;;;6216875;23;20386;-87
2022/08/27 11:41:33;;;;;;;7.47;2.27;;;26.50;99.90;;;;;;6216980;23;20391;-87
2022/08/27 11:43:59;;;;;;;4.67;2.70;;;26.60;99.90;;;;;;6216102;23;20413;-86
2022/08/27 11:46:30;;;;;;;7.03;2.67;;;26.70;99.90;;;;;;6215945;23;20426;-87
2022/08/27 11:49:00;;;;;;;4.53;2.43;;;26.80;99.90;;;;;;6216827;23;20388;-87
2022/08/27 11:51:33;;;;;;;8.03;2.47;;;26.90;99.90;;;;;;6243830;23;20403;-87
2022/08/27 11:54:02;;;;;;;6.57;2.20;;;27.10;99.90;;;;;;6242951;22;20428;-87
2022/08/27 11:56:35;;;;;;;5.53;2.23;;;27.20;99.90;;;;;;6242832;23;20790;-87
2022/08/27 11:59:32;;;;;;;8.27;2.17;;;27.30;99.90;;;;;;6216004;23;20376;-88
2022/08/27 12:02:30;;;;;;;3.23;2.10;;;27.40;99.90;;;;;;6174946;23;20431;-88
2022/08/27 12:05:31;;;;;;;4.23;1.80;;;27.40;99.90;;;;;;6218324;23;20775;-88
2022/08/27 12:07:58;;;;;;;6.17;2.60;;;27.50;99.90;;;;;;6218453;23;20947;-88
2022/08/27 12:10:51;;;;;;;3.20;1.70;;;27.60;99.90;;;;;;6219043;23;20451;-91
2022/08/27 12:13:38;;;;;;;4.23;2.30;;;27.70;99.90;;;;;;6219042;23;20411;-87
2022/08/27 12:16:29;;;;;;;1.87;1.40;;;27.70;99.90;;;;;;6218467;23;20841;-88
2022/08/27 12:19:22;;;;;;;3.97;1.93;;;27.80;99.90;;;;;;6219454;23;20379;-87
2022/08/27 12:21:50;;;;;;;4.10;1.80;;;27.90;99.90;;;;;;6247528;23;20356;-87
2022/08/27 12:24:42;;;;;;;6.90;2.10;;;27.90;99.90;;;;;;6220144;23;20403;-88
2022/08/27 12:27:20;;;;;;;3.40;2.10;;;27.80;99.90;;;;;;6218193;23;20437;-89
2022/08/27 12:29:48;;;;;;;6.30;2.03;;;27.80;99.90;;;;;;6218548;23;20419;-88
2022/08/27 12:32:47;;;;;;;5.23;2.20;;;27.80;99.90;;;;;;6220346;23;20392;-88
2022/08/27 12:35:18;;;;;;;4.80;1.80;;;27.80;99.90;;;;;;6220333;23;20395;-88
2022/08/27 12:37:53;;;;;;;5.10;1.90;;;27.60;99.90;;;;;;6220051;23;20390;-89
2022/08/27 12:40:28;;;;;;;3.97;2.03;;;27.50;99.90;;;;;;6220725;23;20386;-86
2022/08/27 12:43:25;;;;;;;3.27;1.60;;;27.50;99.90;;;;;;6245696;22;20442;-87
2022/08/27 12:46:01;;;;;;;7.43;1.80;;;27.40;99.90;;;;;;6219849;23;20391;-88
2022/08/27 12:48:50;;;;;;;3.17;1.70;;;27.20;99.90;;;;;;6221083;23;20385;-89
2022/08/27 12:51:37;;;;;;;3.90;1.47;;;26.90;99.90;;;;;;6220160;23;20407;-87
2022/08/27 12:54:03;;;;;;;5.33;1.80;;;26.70;99.90;;;;;;6218568;23;20422;-87
2022/08/27 12:56:54;;;;;;;6.13;2.00;;;26.60;99.90;;;;;;6219303;23;20454;-86
2022/08/27 12:59:45;;;;;;;5.00;2.17;;;26.40;99.90;;;;;;6218090;23;20158;-87
2022/08/27 13:02:34;;;;;;;5.97;1.90;;;26.40;99.90;;;;;;6219070;23;20391;-88
2022/08/27 13:05:04;;;;;;;4.17;2.13;;;26.40;99.90;;;;;;6242886;22;20399;-88
2022/08/27 13:07:33;;;;;;;3.73;1.77;;;26.50;99.90;;;;;;6218641;23;20384;-87
2022/08/27 13:10:15;;;;;;;4.13;1.73;;;26.60;99.90;;;;;;6218961;23;20456;-88
2022/08/27 13:12:43;;;;;;;5.80;1.53;;;26.60;99.90;;;;;;6219558;22;20733;-88
2022/08/27 13:15:12;;;;;;;6.50;2.00;;;26.70;99.90;;;;;;6219518;23;20384;-87
2022/08/27 13:17:41;;;;;;;3.40;1.83;;;26.70;99.90;;;;;;6218130;23;20380;-87
2022/08/27 13:20:21;;;;;;;5.07;2.17;;;26.70;99.90;;;;;;6218655;23;20518;-88
2022/08/27 13:22:48;;;;;;;3.60;1.97;;;26.60;99.90;;;;;;6218052;22;20384;-88
2022/08/27 13:25:19;;;;;;;3.80;1.60;;;26.60;99.90;;;;;;6219057;23;20398;-88